sensor_id;sensor_type;location;lat;lon;timestamp;P1;durP1;ratioP1;P2;durP2;ratioP2
56391;SDS011;42289;53.582;9.714;2022-09-04T00:01:13;4.88;;;1.13;;
56391;SDS011;42289;53.582;9.714;2022-09-04T00:03:49;2.38;;;1.08;;
56391;SDS011;42289;53.582;9.714;2022-09-04T00:06:25;2.60;;;1.00;;
56391;SDS011;42289;53.582;9.714;2022-09-04T00:09:00;3.95;;;1.25;;
56391;SDS011;42289;53.582;9.714;2022-09-04T00:11:37;3.05;;;1.10;;
56391;SDS011;42289;53.582;9.714;2022-09-04T00:14:11;2.17;;;0.90;;
56391;SDS011;42289;53.582;9.714;2022-09-04T00:16:41;2.33;;;0.90;;
56391;SDS011;42289;53.582;9.714;2022-09-04T00:19:14;2.97;;;1.13;;
56391;SDS011;42289;53.582;9.714;2022-09-04T00:21:47;4.60;;;1.05;;
56391;SDS011;42289;53.582;9.714;2022-09-04T00:24:18;2.58;;;0.93;;
56391;SDS011;42289;53.582;9.714;2022-09-04T00:26:49;3.38;;;1.15;;
56391;SDS011;42289;53.582;9.714;2022-09-04T00:29:21;3.92;;;1.00;;
56391;SDS011;42289;53.582;9.714;2022-09-04T00:31:56;2.50;;;1.00;;
56391;SDS011;42289;53.582;9.714;2022-09-04T00:34:37;2.65;;;0.95;;
56391;SDS011;42289;53.582;9.714;2022-09-04T00:37:14;2.35;;;0.90;;
56391;SDS011;42289;53.582;9.714;2022-09-04T00:39:47;3.17;;;1.00;;
56391;SDS011;42289;53.582;9.714;2022-09-04T00:42:27;2.35;;;0.90;;
56391;SDS011;42289;53.582;9.714;2022-09-04T00:45:06;3.15;;;1.05;;
56391;SDS011;42289;53.582;9.714;2022-09-04T00:47:59;2.50;;;1.00;;
56391;SDS011;42289;53.582;9.714;2022-09-04T00:50:45;3.60;;;1.10;;
56391;SDS011;42289;53.582;9.714;2022-09-04T00:56:39;4.88;;;1.25;;
56391;SDS011;42289;53.582;9.714;2022-09-04T00:59:21;4.07;;;1.17;;
56391;SDS011;42289;53.582;9.714;2022-09-04T01:02:07;3.53;;;1.00;;
56391;SDS011;42289;53.582;9.714;2022-09-04T01:04:47;3.13;;;1.13;;
56391;SDS011;42289;53.582;9.714;2022-09-04T01:07:31;2.50;;;0.90;;
56391;SDS011;42289;53.582;9.714;2022-09-04T01:10:15;2.97;;;1.10;;
56391;SDS011;42289;53.582;9.714;2022-09-04T01:12:50;4.22;;;1.15;;
56391;SDS011;42289;53.582;9.714;2022-09-04T01:15:26;3.42;;;1.35;;
56391;SDS011;42289;53.582;9.714;2022-09-04T01:18:02;2.20;;;1.10;;
56391;SDS011;42289;53.582;9.714;2022-09-04T01:20:43;2.92;;;1.20;;
56391;SDS011;42289;53.582;9.714;2022-09-04T01:23:32;3.72;;;1.10;;
56391;SDS011;42289;53.582;9.714;2022-09-04T01:26:26;3.40;;;1.00;;
56391;SDS011;42289;53.582;9.714;2022-09-04T01:29:04;2.30;;;0.93;;
56391;SDS011;42289;53.582;9.714;2022-09-04T01:31:43;2.30;;;0.90;;
56391;SDS011;42289;53.582;9.714;2022-09-04T01:34:20;6.22;;;1.13;;
56391;SDS011;42289;53.582;9.714;2022-09-04T01:36:57;2.83;;;1.08;;
56391;SDS011;42289;53.582;9.714;2022-09-04T01:39:30;3.22;;;1.02;;
56391;SDS011;42289;53.582;9.714;2022-09-04T01:42:02;4.40;;;1.10;;
56391;SDS011;42289;53.582;9.714;2022-09-04T01:44:37;3.80;;;1.10;;
56391;SDS011;42289;53.582;9.714;2022-09-04T01:47:07;2.92;;;1.10;;
56391;SDS011;42289;53.582;9.714;2022-09-04T01:49:41;2.63;;;1.00;;
56391;SDS011;42289;53.582;9.714;2022-09-04T01:52:17;4.07;;;1.20;;
56391;SDS011;42289;53.582;9.714;2022-09-04T01:55:02;3.00;;;1.00;;
56391;SDS011;42289;53.582;9.714;2022-09-04T01:57:45;2.22;;;0.85;;
56391;SDS011;42289;53.582;9.714;2022-09-04T02:00:23;2.97;;;1.00;;
56391;SDS011;42289;53.582;9.714;2022-09-04T02:02:54;3.63;;;1.27;;
56391;SDS011;42289;53.582;9.714;2022-09-04T02:05:28;3.25;;;1.20;;
56391;SDS011;42289;53.582;9.714;2022-09-04T02:08:05;3.22;;;1.10;;
56391;SDS011;42289;53.582;9.714;2022-09-04T02:10:44;5.40;;;1.17;;
56391;SDS011;42289;53.582;9.714;2022-09-04T02:13:18;3.45;;;1.00;;
56391;SDS011;42289;53.582;9.714;2022-09-04T02:15:51;3.10;;;1.20;;
56391;SDS011;42289;53.582;9.714;2022-09-04T02:18:29;3.00;;;1.10;;
56391;SDS011;42289;53.582;9.714;2022-09-04T02:21:09;4.32;;;1.10;;
56391;SDS011;42289;53.582;9.714;2022-09-04T02:23:44;3.42;;;1.10;;
56391;SDS011;42289;53.582;9.714;2022-09-04T02:26:18;3.55;;;1.30;;
56391;SDS011;42289;53.582;9.714;2022-09-04T02:28:53;2.67;;;1.17;;
56391;SDS011;42289;53.582;9.714;2022-09-04T02:31:29;4.22;;;1.20;;
56391;SDS011;42289;53.582;9.714;2022-09-04T02:34:05;3.70;;;1.20;;
56391;SDS011;42289;53.582;9.714;2022-09-04T02:36:36;3.90;;;1.10;;
56391;SDS011;42289;53.582;9.714;2022-09-04T02:39:11;2.90;;;1.17;;
56391;SDS011;42289;53.582;9.714;2022-09-04T02:41:48;6.43;;;2.22;;
56391;SDS011;42289;53.582;9.714;2022-09-04T02:44:28;3.17;;;1.40;;
56391;SDS011;42289;53.582;9.714;2022-09-04T02:47:05;4.78;;;1.10;;
56391;SDS011;42289;53.582;9.714;2022-09-04T02:49:40;4.35;;;1.13;;
56391;SDS011;42289;53.582;9.714;2022-09-04T02:52:19;2.30;;;1.00;;
56391;SDS011;42289;53.582;9.714;2022-09-04T02:54:59;6.25;;;1.30;;
56391;SDS011;42289;53.582;9.714;2022-09-04T02:57:37;2.70;;;1.13;;
56391;SDS011;42289;53.582;9.714;2022-09-04T03:00:24;2.28;;;1.08;;
56391;SDS011;42289;53.582;9.714;2022-09-04T03:03:04;3.03;;;0.93;;
56391;SDS011;42289;53.582;9.714;2022-09-04T03:05:38;3.20;;;1.30;;
56391;SDS011;42289;53.582;9.714;2022-09-04T03:08:11;3.78;;;1.30;;
56391;SDS011;42289;53.582;9.714;2022-09-04T03:13:16;2.72;;;1.05;;
56391;SDS011;42289;53.582;9.714;2022-09-04T03:15:50;4.97;;;1.27;;
56391;SDS011;42289;53.582;9.714;2022-09-04T03:18:22;3.57;;;1.30;;
56391;SDS011;42289;53.582;9.714;2022-09-04T03:20:53;2.67;;;1.10;;
56391;SDS011;42289;53.582;9.714;2022-09-04T03:23:27;2.95;;;1.20;;
56391;SDS011;42289;53.582;9.714;2022-09-04T03:26:12;2.58;;;1.15;;
56391;SDS011;42289;53.582;9.714;2022-09-04T03:31:21;2.65;;;1.13;;
56391;SDS011;42289;53.582;9.714;2022-09-04T03:33:54;5.28;;;1.10;;
56391;SDS011;42289;53.582;9.714;2022-09-04T03:36:34;3.38;;;1.15;;
56391;SDS011;42289;53.582;9.714;2022-09-04T03:39:08;2.95;;;1.40;;
56391;SDS011;42289;53.582;9.714;2022-09-04T03:41:43;2.80;;;1.20;;
56391;SDS011;42289;53.582;9.714;2022-09-04T03:44:18;3.92;;;1.13;;
56391;SDS011;42289;53.582;9.714;2022-09-04T03:46:59;4.38;;;1.40;;
56391;SDS011;42289;53.582;9.714;2022-09-04T03:49:38;3.20;;;1.30;;
56391;SDS011;42289;53.582;9.714;2022-09-04T03:52:13;3.53;;;1.35;;
56391;SDS011;42289;53.582;9.714;2022-09-04T03:54:50;5.55;;;1.40;;
56391;SDS011;42289;53.582;9.714;2022-09-04T04:00:26;4.13;;;1.48;;
56391;SDS011;42289;53.582;9.714;2022-09-04T04:03:18;3.83;;;1.40;;
56391;SDS011;42289;53.582;9.714;2022-09-04T04:08:40;3.58;;;1.20;;
56391;SDS011;42289;53.582;9.714;2022-09-04T04:11:39;3.13;;;1.05;;
56391;SDS011;42289;53.582;9.714;2022-09-04T04:14:27;5.03;;;1.30;;
56391;SDS011;42289;53.582;9.714;2022-09-04T04:17:05;4.60;;;1.27;;
56391;SDS011;42289;53.582;9.714;2022-09-04T04:19:46;3.47;;;1.20;;
56391;SDS011;42289;53.582;9.714;2022-09-04T04:25:32;3.55;;;1.00;;
56391;SDS011;42289;53.582;9.714;2022-09-04T04:28:16;3.67;;;1.40;;
56391;SDS011;42289;53.582;9.714;2022-09-04T04:30:53;3.70;;;1.15;;
56391;SDS011;42289;53.582;9.714;2022-09-04T04:33:31;2.97;;;1.23;;
56391;SDS011;42289;53.582;9.714;2022-09-04T04:36:14;3.28;;;1.27;;
56391;SDS011;42289;53.582;9.714;2022-09-04T04:38:59;3.80;;;1.30;;
56391;SDS011;42289;53.582;9.714;2022-09-04T04:41:45;3.90;;;1.33;;
56391;SDS011;42289;53.582;9.714;2022-09-04T04:44:34;3.38;;;1.10;;
56391;SDS011;42289;53.582;9.714;2022-09-04T04:47:38;2.63;;;1.27;;
56391;SDS011;42289;53.582;9.714;2022-09-04T04:50:18;2.73;;;1.20;;
56391;SDS011;42289;53.582;9.714;2022-09-04T04:52:54;4.43;;;1.30;;
56391;SDS011;42289;53.582;9.714;2022-09-04T04:55:31;4.03;;;1.17;;
56391;SDS011;42289;53.582;9.714;2022-09-04T04:58:19;2.90;;;1.30;;
56391;SDS011;42289;53.582;9.714;2022-09-04T05:00:54;2.92;;;1.27;;
56391;SDS011;42289;53.582;9.714;2022-09-04T05:03:32;2.53;;;1.17;;
56391;SDS011;42289;53.582;9.714;2022-09-04T05:06:09;3.10;;;1.20;;
56391;SDS011;42289;53.582;9.714;2022-09-04T05:08:41;4.15;;;1.40;;
56391;SDS011;42289;53.582;9.714;2022-09-04T05:11:15;2.80;;;1.27;;
56391;SDS011;42289;53.582;9.714;2022-09-04T05:13:56;3.00;;;1.35;;
56391;SDS011;42289;53.582;9.714;2022-09-04T05:16:33;4.65;;;1.15;;
56391;SDS011;42289;53.582;9.714;2022-09-04T05:19:08;3.92;;;1.40;;
56391;SDS011;42289;53.582;9.714;2022-09-04T05:21:42;3.95;;;1.20;;
56391;SDS011;42289;53.582;9.714;2022-09-04T05:26:50;5.00;;;1.23;;
56391;SDS011;42289;53.582;9.714;2022-09-04T05:29:22;2.15;;;1.00;;
56391;SDS011;42289;53.582;9.714;2022-09-04T05:31:55;5.00;;;1.30;;
56391;SDS011;42289;53.582;9.714;2022-09-04T05:34:30;4.03;;;1.27;;
56391;SDS011;42289;53.582;9.714;2022-09-04T05:37:19;6.07;;;1.40;;
56391;SDS011;42289;53.582;9.714;2022-09-04T05:40:00;4.65;;;1.40;;
56391;SDS011;42289;53.582;9.714;2022-09-04T05:42:37;4.07;;;1.45;;
56391;SDS011;42289;53.582;9.714;2022-09-04T05:45:11;4.85;;;1.30;;
56391;SDS011;42289;53.582;9.714;2022-09-04T05:47:49;5.10;;;1.17;;
56391;SDS011;42289;53.582;9.714;2022-09-04T05:50:34;3.80;;;1.20;;
56391;SDS011;42289;53.582;9.714;2022-09-04T05:53:16;3.88;;;1.30;;
56391;SDS011;42289;53.582;9.714;2022-09-04T05:55:58;3.78;;;1.42;;
56391;SDS011;42289;53.582;9.714;2022-09-04T05:58:44;4.00;;;1.20;;
56391;SDS011;42289;53.582;9.714;2022-09-04T06:01:30;5.45;;;1.30;;
56391;SDS011;42289;53.582;9.714;2022-09-04T06:04:14;6.20;;;1.58;;
56391;SDS011;42289;53.582;9.714;2022-09-04T06:06:57;6.55;;;1.30;;
56391;SDS011;42289;53.582;9.714;2022-09-04T06:09:35;4.25;;;1.30;;
56391;SDS011;42289;53.582;9.714;2022-09-04T06:12:26;4.15;;;1.30;;
56391;SDS011;42289;53.582;9.714;2022-09-04T06:15:21;3.28;;;1.20;;
56391;SDS011;42289;53.582;9.714;2022-09-04T06:18:05;2.42;;;1.20;;
56391;SDS011;42289;53.582;9.714;2022-09-04T06:20:47;2.55;;;1.20;;
56391;SDS011;42289;53.582;9.714;2022-09-04T06:23:30;4.28;;;1.45;;
56391;SDS011;42289;53.582;9.714;2022-09-04T06:26:20;3.40;;;1.30;;
56391;SDS011;42289;53.582;9.714;2022-09-04T06:29:17;4.63;;;1.23;;
56391;SDS011;42289;53.582;9.714;2022-09-04T06:31:59;6.90;;;1.33;;
56391;SDS011;42289;53.582;9.714;2022-09-04T06:37:34;3.03;;;1.20;;
56391;SDS011;42289;53.582;9.714;2022-09-04T06:40:09;2.75;;;1.30;;
56391;SDS011;42289;53.582;9.714;2022-09-04T06:42:46;2.97;;;1.25;;
56391;SDS011;42289;53.582;9.714;2022-09-04T06:45:29;3.13;;;1.20;;
56391;SDS011;42289;53.582;9.714;2022-09-04T06:48:12;4.50;;;1.35;;
56391;SDS011;42289;53.582;9.714;2022-09-04T06:50:51;4.55;;;1.30;;
56391;SDS011;42289;53.582;9.714;2022-09-04T06:53:26;3.30;;;1.50;;
56391;SDS011;42289;53.582;9.714;2022-09-04T06:56:09;2.65;;;1.40;;
56391;SDS011;42289;53.582;9.714;2022-09-04T06:58:52;5.25;;;1.58;;
56391;SDS011;42289;53.582;9.714;2022-09-04T07:01:36;4.05;;;1.40;;
56391;SDS011;42289;53.582;9.714;2022-09-04T07:04:12;3.88;;;1.50;;
56391;SDS011;42289;53.582;9.714;2022-09-04T07:06:54;3.88;;;1.40;;
56391;SDS011;42289;53.582;9.714;2022-09-04T07:09:29;4.90;;;1.60;;
56391;SDS011;42289;53.582;9.714;2022-09-04T07:12:06;3.53;;;1.50;;
56391;SDS011;42289;53.582;9.714;2022-09-04T07:18:07;5.32;;;1.70;;
56391;SDS011;42289;53.582;9.714;2022-09-04T07:20:42;4.88;;;1.70;;
56391;SDS011;42289;53.582;9.714;2022-09-04T07:23:21;4.85;;;1.50;;
56391;SDS011;42289;53.582;9.714;2022-09-04T07:26:03;5.00;;;1.88;;
56391;SDS011;42289;53.582;9.714;2022-09-04T07:28:49;5.13;;;1.63;;
56391;SDS011;42289;53.582;9.714;2022-09-04T07:31:25;4.65;;;1.77;;
56391;SDS011;42289;53.582;9.714;2022-09-04T07:34:00;3.67;;;1.50;;
56391;SDS011;42289;53.582;9.714;2022-09-04T07:36:33;5.78;;;1.70;;
56391;SDS011;42289;53.582;9.714;2022-09-04T07:39:06;5.43;;;1.50;;
56391;SDS011;42289;53.582;9.714;2022-09-04T07:41:41;3.45;;;1.65;;
56391;SDS011;42289;53.582;9.714;2022-09-04T07:44:16;6.35;;;1.70;;
56391;SDS011;42289;53.582;9.714;2022-09-04T07:46:49;5.18;;;1.80;;
56391;SDS011;42289;53.582;9.714;2022-09-04T07:49:28;5.43;;;1.70;;
56391;SDS011;42289;53.582;9.714;2022-09-04T07:54:30;4.88;;;2.03;;
56391;SDS011;42289;53.582;9.714;2022-09-04T07:57:21;4.97;;;1.90;;
56391;SDS011;42289;53.582;9.714;2022-09-04T08:00:07;7.82;;;2.10;;
56391;SDS011;42289;53.582;9.714;2022-09-04T08:02:50;4.18;;;1.77;;
56391;SDS011;42289;53.582;9.714;2022-09-04T08:05:35;6.65;;;1.90;;
56391;SDS011;42289;53.582;9.714;2022-09-04T08:14:31;4.65;;;2.00;;
56391;SDS011;42289;53.582;9.714;2022-09-04T08:20:22;6.88;;;2.00;;
56391;SDS011;42289;53.582;9.714;2022-09-04T08:23:07;4.40;;;2.17;;
56391;SDS011;42289;53.582;9.714;2022-09-04T08:25:50;5.30;;;2.00;;
56391;SDS011;42289;53.582;9.714;2022-09-04T08:28:27;4.60;;;2.10;;
56391;SDS011;42289;53.582;9.714;2022-09-04T08:31:09;5.25;;;2.40;;
56391;SDS011;42289;53.582;9.714;2022-09-04T08:34:08;6.38;;;2.40;;
56391;SDS011;42289;53.582;9.714;2022-09-04T08:36:55;4.97;;;2.17;;
56391;SDS011;42289;53.582;9.714;2022-09-04T08:39:34;4.88;;;2.10;;
56391;SDS011;42289;53.582;9.714;2022-09-04T08:42:27;3.83;;;2.10;;
56391;SDS011;42289;53.582;9.714;2022-09-04T08:48:25;5.22;;;2.63;;
56391;SDS011;42289;53.582;9.714;2022-09-04T08:51:18;5.93;;;2.42;;
56391;SDS011;42289;53.582;9.714;2022-09-04T08:56:54;5.63;;;2.40;;
56391;SDS011;42289;53.582;9.714;2022-09-04T08:59:49;4.82;;;2.33;;
56391;SDS011;42289;53.582;9.714;2022-09-04T09:02:36;3.22;;;2.03;;
56391;SDS011;42289;53.582;9.714;2022-09-04T09:05:31;4.80;;;2.20;;
56391;SDS011;42289;53.582;9.714;2022-09-04T09:08:26;6.88;;;2.65;;
56391;SDS011;42289;53.582;9.714;2022-09-04T09:11:17;4.22;;;2.30;;
56391;SDS011;42289;53.582;9.714;2022-09-04T09:14:04;4.55;;;2.20;;
56391;SDS011;42289;53.582;9.714;2022-09-04T09:17:10;4.90;;;2.47;;
56391;SDS011;42289;53.582;9.714;2022-09-04T09:19:44;4.18;;;2.30;;
56391;SDS011;42289;53.582;9.714;2022-09-04T09:22:26;5.47;;;2.22;;
56391;SDS011;42289;53.582;9.714;2022-09-04T09:25:16;4.65;;;2.50;;
56391;SDS011;42289;53.582;9.714;2022-09-04T09:31:15;6.97;;;2.38;;
56391;SDS011;42289;53.582;9.714;2022-09-04T09:34:23;7.22;;;2.30;;
56391;SDS011;42289;53.582;9.714;2022-09-04T09:37:19;5.57;;;2.80;;
56391;SDS011;42289;53.582;9.714;2022-09-04T09:40:05;5.15;;;2.42;;
56391;SDS011;42289;53.582;9.714;2022-09-04T09:42:53;4.30;;;2.63;;
56391;SDS011;42289;53.582;9.714;2022-09-04T09:45:46;4.80;;;2.53;;
56391;SDS011;42289;53.582;9.714;2022-09-04T09:48:50;4.15;;;2.25;;
56391;SDS011;42289;53.582;9.714;2022-09-04T09:51:39;6.00;;;2.88;;
56391;SDS011;42289;53.582;9.714;2022-09-04T09:54:34;4.38;;;2.40;;
56391;SDS011;42289;53.582;9.714;2022-09-04T10:00:23;6.53;;;2.47;;
56391;SDS011;42289;53.582;9.714;2022-09-04T10:06:14;5.97;;;2.60;;
56391;SDS011;42289;53.582;9.714;2022-09-04T10:12:17;5.53;;;2.50;;
56391;SDS011;42289;53.582;9.714;2022-09-04T10:15:03;4.00;;;2.22;;
56391;SDS011;42289;53.582;9.714;2022-09-04T10:17:49;5.20;;;2.67;;
56391;SDS011;42289;53.582;9.714;2022-09-04T10:23:33;6.20;;;2.38;;
56391;SDS011;42289;53.582;9.714;2022-09-04T10:29:19;4.55;;;2.60;;
56391;SDS011;42289;53.582;9.714;2022-09-04T10:35:05;4.22;;;2.53;;
56391;SDS011;42289;53.582;9.714;2022-09-04T10:37:50;5.25;;;2.10;;
56391;SDS011;42289;53.582;9.714;2022-09-04T10:40:38;5.05;;;2.30;;
56391;SDS011;42289;53.582;9.714;2022-09-04T10:43:16;6.43;;;2.40;;
56391;SDS011;42289;53.582;9.714;2022-09-04T10:46:04;4.18;;;2.17;;
56391;SDS011;42289;53.582;9.714;2022-09-04T10:51:32;4.22;;;2.35;;
56391;SDS011;42289;53.582;9.714;2022-09-04T10:54:16;4.32;;;2.28;;
56391;SDS011;42289;53.582;9.714;2022-09-04T10:57:11;8.38;;;2.40;;
56391;SDS011;42289;53.582;9.714;2022-09-04T10:59:49;3.50;;;1.90;;
56391;SDS011;42289;53.582;9.714;2022-09-04T11:02:52;4.38;;;2.13;;
56391;SDS011;42289;53.582;9.714;2022-09-04T11:05:42;5.28;;;2.28;;
56391;SDS011;42289;53.582;9.714;2022-09-04T11:08:36;5.57;;;2.10;;
56391;SDS011;42289;53.582;9.714;2022-09-04T11:11:18;5.47;;;1.80;;
56391;SDS011;42289;53.582;9.714;2022-09-04T11:14:16;4.38;;;2.10;;
56391;SDS011;42289;53.582;9.714;2022-09-04T11:20:11;5.68;;;1.83;;
56391;SDS011;42289;53.582;9.714;2022-09-04T11:23:05;3.63;;;1.98;;
56391;SDS011;42289;53.582;9.714;2022-09-04T11:26:11;5.43;;;2.17;;
56391;SDS011;42289;53.582;9.714;2022-09-04T11:29:03;3.92;;;2.13;;
56391;SDS011;42289;53.582;9.714;2022-09-04T11:31:54;5.53;;;2.20;;
56391;SDS011;42289;53.582;9.714;2022-09-04T11:34:41;3.63;;;1.70;;
56391;SDS011;42289;53.582;9.714;2022-09-04T11:46:48;4.45;;;1.88;;
56391;SDS011;42289;53.582;9.714;2022-09-04T11:49:46;3.08;;;1.80;;
56391;SDS011;42289;53.582;9.714;2022-09-04T11:52:30;3.70;;;2.13;;
56391;SDS011;42289;53.582;9.714;2022-09-04T11:55:17;4.40;;;1.67;;
56391;SDS011;42289;53.582;9.714;2022-09-04T11:58:02;3.97;;;1.70;;
56391;SDS011;42289;53.582;9.714;2022-09-04T12:00:49;4.60;;;2.00;;
56391;SDS011;42289;53.582;9.714;2022-09-04T12:06:28;5.45;;;1.88;;
56391;SDS011;42289;53.582;9.714;2022-09-04T12:09:11;5.18;;;1.80;;
56391;SDS011;42289;53.582;9.714;2022-09-04T12:15:00;3.38;;;1.80;;
56391;SDS011;42289;53.582;9.714;2022-09-04T12:18:04;4.43;;;1.92;;
56391;SDS011;42289;53.582;9.714;2022-09-04T12:20:53;3.75;;;2.00;;
56391;SDS011;42289;53.582;9.714;2022-09-04T12:23:41;4.22;;;1.95;;
56391;SDS011;42289;53.582;9.714;2022-09-04T12:29:37;5.22;;;1.92;;
56391;SDS011;42289;53.582;9.714;2022-09-04T12:35:18;4.28;;;2.10;;
56391;SDS011;42289;53.582;9.714;2022-09-04T12:38:16;3.67;;;2.03;;
56391;SDS011;42289;53.582;9.714;2022-09-04T12:40:58;4.15;;;2.10;;
56391;SDS011;42289;53.582;9.714;2022-09-04T12:43:34;4.22;;;1.90;;
56391;SDS011;42289;53.582;9.714;2022-09-04T12:46:14;4.45;;;1.75;;
56391;SDS011;42289;53.582;9.714;2022-09-04T12:48:56;4.07;;;1.73;;
56391;SDS011;42289;53.582;9.714;2022-09-04T12:51:37;7.10;;;2.25;;
56391;SDS011;42289;53.582;9.714;2022-09-04T12:54:16;5.55;;;2.20;;
56391;SDS011;42289;53.582;9.714;2022-09-04T12:57:05;5.57;;;2.10;;
56391;SDS011;42289;53.582;9.714;2022-09-04T12:59:52;4.68;;;2.20;;
56391;SDS011;42289;53.582;9.714;2022-09-04T13:02:31;3.70;;;2.13;;
56391;SDS011;42289;53.582;9.714;2022-09-04T13:05:17;3.55;;;2.10;;
56391;SDS011;42289;53.582;9.714;2022-09-04T13:07:58;3.22;;;1.90;;
56391;SDS011;42289;53.582;9.714;2022-09-04T13:10:35;3.83;;;1.98;;
56391;SDS011;42289;53.582;9.714;2022-09-04T13:13:12;4.68;;;1.90;;
56391;SDS011;42289;53.582;9.714;2022-09-04T13:15:47;5.25;;;1.95;;
56391;SDS011;42289;53.582;9.714;2022-09-04T13:18:24;4.45;;;1.80;;
56391;SDS011;42289;53.582;9.714;2022-09-04T13:21:09;4.60;;;1.80;;
56391;SDS011;42289;53.582;9.714;2022-09-04T13:23:52;3.90;;;1.80;;
56391;SDS011;42289;53.582;9.714;2022-09-04T13:26:36;4.38;;;2.22;;
56391;SDS011;42289;53.582;9.714;2022-09-04T13:29:17;5.75;;;2.00;;
56391;SDS011;42289;53.582;9.714;2022-09-04T13:31:57;4.70;;;1.95;;
56391;SDS011;42289;53.582;9.714;2022-09-04T13:34:38;4.65;;;2.10;;
56391;SDS011;42289;53.582;9.714;2022-09-04T13:37:18;6.47;;;2.60;;
56391;SDS011;42289;53.582;9.714;2022-09-04T13:42:59;3.88;;;1.85;;
56391;SDS011;42289;53.582;9.714;2022-09-04T13:45:38;3.50;;;1.85;;
56391;SDS011;42289;53.582;9.714;2022-09-04T13:48:08;4.47;;;1.73;;
56391;SDS011;42289;53.582;9.714;2022-09-04T13:50:40;5.43;;;1.75;;
56391;SDS011;42289;53.582;9.714;2022-09-04T13:53:12;3.78;;;1.77;;
56391;SDS011;42289;53.582;9.714;2022-09-04T13:55:46;3.38;;;1.77;;
56391;SDS011;42289;53.582;9.714;2022-09-04T13:58:19;6.10;;;2.50;;
56391;SDS011;42289;53.582;9.714;2022-09-04T14:00:53;4.03;;;2.40;;
56391;SDS011;42289;53.582;9.714;2022-09-04T14:03:28;4.28;;;2.20;;
56391;SDS011;42289;53.582;9.714;2022-09-04T14:05:58;3.58;;;1.90;;
56391;SDS011;42289;53.582;9.714;2022-09-04T14:08:26;3.20;;;1.80;;
56391;SDS011;42289;53.582;9.714;2022-09-04T14:14:21;2.97;;;1.70;;
56391;SDS011;42289;53.582;9.714;2022-09-04T14:17:03;4.00;;;1.90;;
56391;SDS011;42289;53.582;9.714;2022-09-04T14:19:36;4.82;;;1.98;;
56391;SDS011;42289;53.582;9.714;2022-09-04T14:22:19;3.92;;;1.88;;
56391;SDS011;42289;53.582;9.714;2022-09-04T14:24:58;4.75;;;1.80;;
56391;SDS011;42289;53.582;9.714;2022-09-04T14:27:33;3.92;;;1.80;;
56391;SDS011;42289;53.582;9.714;2022-09-04T14:30:06;5.13;;;1.80;;
56391;SDS011;42289;53.582;9.714;2022-09-04T14:32:46;5.57;;;1.70;;
56391;SDS011;42289;53.582;9.714;2022-09-04T14:35:23;3.53;;;1.85;;
56391;SDS011;42289;53.582;9.714;2022-09-04T14:38:05;2.75;;;1.63;;
56391;SDS011;42289;53.582;9.714;2022-09-04T14:40:48;4.85;;;2.20;;
56391;SDS011;42289;53.582;9.714;2022-09-04T14:43:24;3.65;;;1.70;;
56391;SDS011;42289;53.582;9.714;2022-09-04T14:46:01;4.55;;;1.58;;
56391;SDS011;42289;53.582;9.714;2022-09-04T14:48:37;3.88;;;1.90;;
56391;SDS011;42289;53.582;9.714;2022-09-04T14:51:10;4.90;;;2.10;;
56391;SDS011;42289;53.582;9.714;2022-09-04T14:53:44;3.78;;;1.90;;
56391;SDS011;42289;53.582;9.714;2022-09-04T14:56:24;3.50;;;1.80;;
56391;SDS011;42289;53.582;9.714;2022-09-04T14:58:56;5.75;;;2.00;;
56391;SDS011;42289;53.582;9.714;2022-09-04T15:01:33;3.53;;;1.70;;
56391;SDS011;42289;53.582;9.714;2022-09-04T15:04:19;4.32;;;1.80;;
56391;SDS011;42289;53.582;9.714;2022-09-04T15:06:50;3.25;;;1.77;;
56391;SDS011;42289;53.582;9.714;2022-09-04T15:09:22;5.13;;;1.90;;
56391;SDS011;42289;53.582;9.714;2022-09-04T15:11:53;3.53;;;1.75;;
56391;SDS011;42289;53.582;9.714;2022-09-04T15:14:22;5.57;;;2.00;;
56391;SDS011;42289;53.582;9.714;2022-09-04T15:16:59;3.83;;;1.65;;
56391;SDS011;42289;53.582;9.714;2022-09-04T15:22:04;6.97;;;1.90;;
56391;SDS011;42289;53.582;9.714;2022-09-04T15:24:38;4.55;;;2.22;;
56391;SDS011;42289;53.582;9.714;2022-09-04T15:27:16;3.17;;;1.60;;
56391;SDS011;42289;53.582;9.714;2022-09-04T15:29:53;3.22;;;1.70;;
56391;SDS011;42289;53.582;9.714;2022-09-04T15:32:29;3.28;;;1.67;;
56391;SDS011;42289;53.582;9.714;2022-09-04T15:35:10;3.63;;;1.70;;
56391;SDS011;42289;53.582;9.714;2022-09-04T15:37:40;3.47;;;1.77;;
56391;SDS011;42289;53.582;9.714;2022-09-04T15:40:11;4.28;;;1.60;;
56391;SDS011;42289;53.582;9.714;2022-09-04T15:42:51;4.18;;;1.80;;
56391;SDS011;42289;53.582;9.714;2022-09-04T15:45:25;4.40;;;2.20;;
56391;SDS011;42289;53.582;9.714;2022-09-04T15:48:02;5.22;;;1.85;;
56391;SDS011;42289;53.582;9.714;2022-09-04T15:50:38;3.80;;;2.00;;
56391;SDS011;42289;53.582;9.714;2022-09-04T15:53:20;5.63;;;1.92;;
56391;SDS011;42289;53.582;9.714;2022-09-04T15:55:58;3.58;;;1.67;;
56391;SDS011;42289;53.582;9.714;2022-09-04T15:58:31;3.65;;;1.90;;
56391;SDS011;42289;53.582;9.714;2022-09-04T16:01:08;3.10;;;1.80;;
56391;SDS011;42289;53.582;9.714;2022-09-04T16:03:44;4.32;;;1.90;;
56391;SDS011;42289;53.582;9.714;2022-09-04T16:06:19;3.35;;;1.70;;
56391;SDS011;42289;53.582;9.714;2022-09-04T16:08:57;3.20;;;1.98;;
56391;SDS011;42289;53.582;9.714;2022-09-04T16:11:30;3.67;;;2.00;;
56391;SDS011;42289;53.582;9.714;2022-09-04T16:16:33;5.43;;;2.10;;
56391;SDS011;42289;53.582;9.714;2022-09-04T16:19:18;4.80;;;1.90;;
56391;SDS011;42289;53.582;9.714;2022-09-04T16:21:52;3.28;;;1.75;;
56391;SDS011;42289;53.582;9.714;2022-09-04T16:24:29;6.22;;;3.72;;
56391;SDS011;42289;53.582;9.714;2022-09-04T16:26:59;5.40;;;3.65;;
56391;SDS011;42289;53.582;9.714;2022-09-04T16:29:33;4.72;;;2.40;;
56391;SDS011;42289;53.582;9.714;2022-09-04T16:32:02;4.13;;;2.03;;
56391;SDS011;42289;53.582;9.714;2022-09-04T16:34:42;3.78;;;2.10;;
56391;SDS011;42289;53.582;9.714;2022-09-04T16:37:13;4.78;;;2.00;;
56391;SDS011;42289;53.582;9.714;2022-09-04T16:42:48;4.47;;;2.08;;
56391;SDS011;42289;53.582;9.714;2022-09-04T16:45:19;4.55;;;2.03;;
56391;SDS011;42289;53.582;9.714;2022-09-04T16:47:54;3.58;;;2.10;;
56391;SDS011;42289;53.582;9.714;2022-09-04T16:50:29;5.57;;;3.58;;
56391;SDS011;42289;53.582;9.714;2022-09-04T16:53:09;4.65;;;2.00;;
56391;SDS011;42289;53.582;9.714;2022-09-04T16:55:54;3.38;;;2.00;;
56391;SDS011;42289;53.582;9.714;2022-09-04T16:58:29;3.88;;;1.60;;
56391;SDS011;42289;53.582;9.714;2022-09-04T17:01:04;4.13;;;1.83;;
56391;SDS011;42289;53.582;9.714;2022-09-04T17:03:47;5.35;;;2.03;;
56391;SDS011;42289;53.582;9.714;2022-09-04T17:06:21;4.20;;;1.70;;
56391;SDS011;42289;53.582;9.714;2022-09-04T17:08:55;3.90;;;2.10;;
56391;SDS011;42289;53.582;9.714;2022-09-04T17:11:38;5.30;;;2.03;;
56391;SDS011;42289;53.582;9.714;2022-09-04T17:14:13;6.80;;;3.15;;
56391;SDS011;42289;53.582;9.714;2022-09-04T17:16:51;4.15;;;2.17;;
56391;SDS011;42289;53.582;9.714;2022-09-04T17:19:21;5.90;;;2.53;;
56391;SDS011;42289;53.582;9.714;2022-09-04T17:22:06;3.83;;;1.83;;
56391;SDS011;42289;53.582;9.714;2022-09-04T17:24:56;6.07;;;2.35;;
56391;SDS011;42289;53.582;9.714;2022-09-04T17:27:41;4.70;;;2.75;;
56391;SDS011;42289;53.582;9.714;2022-09-04T17:30:14;4.32;;;2.10;;
56391;SDS011;42289;53.582;9.714;2022-09-04T17:32:49;4.00;;;2.20;;
56391;SDS011;42289;53.582;9.714;2022-09-04T17:35:23;4.63;;;2.15;;
56391;SDS011;42289;53.582;9.714;2022-09-04T17:38:00;3.90;;;2.13;;
56391;SDS011;42289;53.582;9.714;2022-09-04T17:40:35;5.75;;;2.20;;
56391;SDS011;42289;53.582;9.714;2022-09-04T17:43:16;4.47;;;2.00;;
56391;SDS011;42289;53.582;9.714;2022-09-04T17:45:53;3.95;;;2.03;;
56391;SDS011;42289;53.582;9.714;2022-09-04T17:48:31;3.35;;;1.90;;
56391;SDS011;42289;53.582;9.714;2022-09-04T17:51:03;4.53;;;1.92;;
56391;SDS011;42289;53.582;9.714;2022-09-04T17:53:35;6.30;;;1.98;;